Time;durP1;ratioP1;P1;durP2;ratioP2;P2;SDS_P1;SDS_P2;PMS_P1;PMS_P2;Temp;Humidity;BMP_temperature;BMP_pressure;BME280_temperature;BME280_humidity;BME280_pressure;Samples;Min_cycle;Max_cycle;Signal;HPM_P1;HPM_P2
2023/01/08 00:01:23;;;;;;;12.90;7.93;;;0.60;87.50;;;;;;5011139;28;20431;-63
2023/01/08 00:03:50;;;;;;;15.33;8.43;;;0.60;87.50;;;;;;5012533;28;20187;-64
2023/01/08 00:06:17;;;;;;;12.73;8.73;;;0.60;87.70;;;;;;5024090;28;20545;-64
2023/01/08 00:08:44;;;;;;;12.30;7.83;;;0.60;88.00;;;;;;5026241;28;20481;-64
2023/01/08 00:11:10;;;;;;;11.97;7.90;;;0.60;87.70;;;;;;5024209;28;20430;-64
2023/01/08 00:13:37;;;;;;;13.73;8.43;;;0.60;87.70;;;;;;5018763;28;20482;-64
2023/01/08 00:16:05;;;;;;;11.37;8.30;;;0.60;87.50;;;;;;5005825;28;20480;-64
2023/01/08 00:18:30;;;;;;;11.77;7.97;;;0.60;87.60;;;;;;5034271;28;20442;-64
2023/01/08 00:20:57;;;;;;;11.47;6.90;;;0.60;87.60;;;;;;5006228;28;20437;-64
2023/01/08 00:23:23;;;;;;;10.97;7.73;;;0.60;87.40;;;;;;5027320;28;20200;-64
2023/01/08 00:25:49;;;;;;;11.30;8.57;;;0.60;87.20;;;;;;5024509;28;20439;-64
2023/01/08 00:28:15;;;;;;;13.37;8.20;;;0.50;87.00;;;;;;5003245;28;20191;-64
2023/01/08 00:30:42;;;;;;;12.00;8.13;;;0.50;86.70;;;;;;5013843;28;20434;-64
2023/01/08 00:33:08;;;;;;;12.47;7.93;;;0.50;86.90;;;;;;5023906;28;20441;-64
2023/01/08 00:35:36;;;;;;;11.97;7.77;;;0.40;86.90;;;;;;5019449;28;20430;-64
2023/01/08 00:38:02;;;;;;;14.17;8.83;;;0.40;87.00;;;;;;5043551;28;20434;-64
2023/01/08 00:40:28;;;;;;;13.70;8.80;;;0.40;86.70;;;;;;5016691;28;20431;-64
2023/01/08 00:42:53;;;;;;;11.77;7.87;;;0.40;87.10;;;;;;5013286;28;20196;-64
2023/01/08 00:45:19;;;;;;;13.53;8.87;;;0.40;86.90;;;;;;5016037;28;20190;-64
2023/01/08 00:47:45;;;;;;;11.93;8.53;;;0.40;86.90;;;;;;5013224;28;20210;-65
2023/01/08 00:50:11;;;;;;;15.13;7.70;;;0.40;87.10;;;;;;5016675;28;20227;-64
2023/01/08 00:52:36;;;;;;;12.97;7.87;;;0.30;86.90;;;;;;5032649;28;20179;-64
2023/01/08 00:55:02;;;;;;;15.63;9.63;;;0.30;86.90;;;;;;5013013;28;20467;-64
2023/01/08 00:57:36;;;;;;;12.77;8.57;;;0.30;87.00;;;;;;4997239;28;20215;-64
2023/01/08 01:00:03;;;;;;;12.30;8.50;;;0.30;87.50;;;;;;5001092;28;20484;-64
2023/01/08 01:02:29;;;;;;;14.40;8.43;;;0.30;87.50;;;;;;5021441;28;20424;-64
2023/01/08 01:04:55;;;;;;;13.17;8.60;;;0.30;87.40;;;;;;5013326;28;20426;-63
2023/01/08 01:07:20;;;;;;;14.20;8.23;;;0.30;87.30;;;;;;5021511;28;20319;-63
2023/01/08 01:09:46;;;;;;;11.77;8.03;;;0.20;87.30;;;;;;5013532;28;20198;-63
2023/01/08 01:12:12;;;;;;;11.73;8.13;;;0.20;87.20;;;;;;5017160;28;20634;-65
2023/01/08 01:14:37;;;;;;;12.23;7.13;;;0.20;87.20;;;;;;5019513;28;20187;-64
2023/01/08 01:17:04;;;;;;;11.27;7.33;;;0.20;87.50;;;;;;5008289;28;20308;-64
2023/01/08 01:19:29;;;;;;;11.93;8.17;;;0.20;87.30;;;;;;5026236;28;20199;-64
2023/01/08 01:21:55;;;;;;;11.67;7.87;;;0.20;87.40;;;;;;5021782;28;20430;-64
2023/01/08 01:24:23;;;;;;;11.77;7.57;;;0.10;87.00;;;;;;5018265;28;20537;-64
2023/01/08 01:26:50;;;;;;;12.20;7.90;;;0.00;87.20;;;;;;5018252;28;20228;-64
2023/01/08 01:29:16;;;;;;;12.37;8.40;;;0.00;87.30;;;;;;5021288;28;20484;-64
2023/01/08 01:31:42;;;;;;;9.97;7.50;;;0.00;87.60;;;;;;5038296;28;20534;-64
2023/01/08 01:34:09;;;;;;;13.10;8.40;;;0.00;87.50;;;;;;5011016;28;20445;-64
2023/01/08 01:36:36;;;;;;;13.37;8.27;;;0.00;87.50;;;;;;5034059;28;20210;-65
2023/01/08 01:39:03;;;;;;;10.77;7.73;;;0.00;87.50;;;;;;5050553;28;20458;-64
2023/01/08 01:41:43;;;;;;;15.87;7.97;;;0.00;87.30;;;;;;5032153;28;20480;-64
2023/01/08 01:44:41;;;;;;;12.03;7.20;;;0.00;87.50;;;;;;5037615;28;20439;-64
2023/01/08 01:47:36;;;;;;;11.37;6.73;;;0.00;87.50;;;;;;5036570;28;20430;-65
2023/01/08 01:50:15;;;;;;;12.47;8.00;;;0.00;87.20;;;;;;5016393;28;20435;-65
2023/01/08 01:52:58;;;;;;;11.03;6.97;;;0.00;87.30;;;;;;5038044;28;20464;-65
2023/01/08 01:55:25;;;;;;;11.70;7.10;;;0.00;87.50;;;;;;5021694;28;20434;-65
2023/01/08 01:58:00;;;;;;;9.80;6.53;;;0.00;87.60;;;;;;5023000;28;20431;-65
2023/01/08 02:00:27;;;;;;;11.23;6.87;;;0.00;87.90;;;;;;5022831;28;20426;-65
2023/01/08 02:02:54;;;;;;;10.03;6.30;;;0.00;87.80;;;;;;5034235;28;20460;-65
2023/01/08 02:05:21;;;;;;;11.03;6.67;;;0.00;87.80;;;;;;5028201;28;20484;-65
2023/01/08 02:08:00;;;;;;;9.27;6.50;;;0.00;88.00;;;;;;5033894;28;20518;-65
2023/01/08 02:10:41;;;;;;;12.00;7.33;;;0.00;88.10;;;;;;5026007;28;20429;-65
2023/01/08 02:13:19;;;;;;;9.70;6.80;;;0.10;88.20;;;;;;5017114;28;20422;-65
2023/01/08 02:15:57;;;;;;;12.40;6.37;;;0.20;88.50;;;;;;5029473;28;20469;-65
2023/01/08 02:18:41;;;;;;;10.83;6.63;;;0.20;88.50;;;;;;5035734;28;20474;-65
2023/01/08 02:21:12;;;;;;;9.53;6.43;;;0.20;88.50;;;;;;5024246;28;20429;-65
2023/01/08 02:24:04;;;;;;;11.03;6.03;;;0.30;88.20;;;;;;5036387;28;20436;-65
2023/01/08 02:26:34;;;;;;;10.50;6.90;;;0.30;88.30;;;;;;5021825;28;20465;-65
2023/01/08 02:29:04;;;;;;;9.70;6.40;;;0.30;88.10;;;;;;5019833;28;20476;-65
2023/01/08 02:31:31;;;;;;;9.80;6.03;;;0.20;87.60;;;;;;5035295;28;20464;-64
2023/01/08 02:33:56;;;;;;;8.33;6.07;;;0.20;87.40;;;;;;5034252;28;20473;-64
2023/01/08 02:36:36;;;;;;;11.10;6.80;;;0.20;87.30;;;;;;5041992;28;20491;-64
2023/01/08 02:39:36;;;;;;;9.53;6.40;;;0.10;87.40;;;;;;5040620;28;20178;-64
2023/01/08 02:42:13;;;;;;;10.00;6.53;;;0.00;87.20;;;;;;5018619;28;20434;-64
2023/01/08 02:45:07;;;;;;;10.63;7.37;;;0.00;87.50;;;;;;5031972;28;20427;-64
2023/01/08 02:47:40;;;;;;;9.00;6.00;;;0.00;87.40;;;;;;5020223;28;20484;-64
2023/01/08 02:50:34;;;;;;;9.87;6.47;;;0.00;87.50;;;;;;5036429;28;20452;-64
2023/01/08 02:53:26;;;;;;;9.57;6.27;;;0.00;87.50;;;;;;5037141;28;20516;-65
2023/01/08 02:55:58;;;;;;;9.67;6.03;;;0.00;87.50;;;;;;5014672;28;20470;-64
2023/01/08 02:58:28;;;;;;;9.40;6.47;;;0.00;87.60;;;;;;5029894;28;20462;-64
2023/01/08 03:00:54;;;;;;;9.20;5.77;;;0.00;87.60;;;;;;5030347;28;20414;-64
2023/01/08 03:03:26;;;;;;;9.33;6.63;;;0.00;87.50;;;;;;5051240;28;20925;-64
2023/01/08 03:05:57;;;;;;;10.50;6.60;;;0.00;88.20;;;;;;5026198;28;20425;-64
2023/01/08 03:08:24;;;;;;;7.80;5.57;;;0.00;87.90;;;;;;5050624;28;20573;-64
2023/01/08 03:11:02;;;;;;;11.10;6.83;;;0.00;87.90;;;;;;5023669;28;20430;-64
2023/01/08 03:13:34;;;;;;;10.23;6.97;;;0.00;87.70;;;;;;5020871;28;20457;-64
2023/01/08 03:16:02;;;;;;;13.40;6.37;;;0.00;87.70;;;;;;5038095;28;20493;-64
2023/01/08 03:18:34;;;;;;;8.97;6.03;;;0.00;87.50;;;;;;5016149;28;20494;-64
2023/01/08 03:21:04;;;;;;;9.37;6.50;;;0.00;87.70;;;;;;5024986;28;20438;-64
2023/01/08 03:23:32;;;;;;;9.20;5.80;;;0.00;87.60;;;;;;5031031;28;20487;-64
2023/01/08 03:26:00;;;;;;;7.87;5.90;;;-0.10;87.30;;;;;;5022924;28;20434;-64
2023/01/08 03:28:31;;;;;;;9.37;6.13;;;0.00;87.20;;;;;;5009276;28;20424;-63
2023/01/08 03:30:58;;;;;;;10.93;6.70;;;-0.10;87.20;;;;;;5024216;28;20432;-63
2023/01/08 03:33:26;;;;;;;9.67;6.23;;;-0.10;87.60;;;;;;5014435;28;20445;-63
2023/01/08 03:35:54;;;;;;;8.60;5.57;;;-0.10;87.50;;;;;;5017632;28;20473;-63
2023/01/08 03:38:43;;;;;;;8.87;6.13;;;-0.10;87.70;;;;;;5021382;28;20447;-64
2023/01/08 03:41:11;;;;;;;8.37;5.60;;;-0.10;87.50;;;;;;5014244;28;20427;-64
2023/01/08 03:43:37;;;;;;;9.43;5.83;;;-0.10;87.80;;;;;;5015990;28;20422;-64
2023/01/08 03:46:11;;;;;;;8.27;5.57;;;-0.10;87.90;;;;;;5014354;28;20443;-64
2023/01/08 03:48:38;;;;;;;9.77;6.40;;;-0.10;87.80;;;;;;5030998;28;20194;-65
2023/01/08 03:51:08;;;;;;;9.40;6.23;;;-0.10;88.00;;;;;;5024897;28;20461;-64
2023/01/08 03:53:34;;;;;;;8.27;5.63;;;-0.10;87.70;;;;;;5016764;28;20426;-64
2023/01/08 03:55:59;;;;;;;7.40;5.37;;;-0.10;87.60;;;;;;4997818;28;20470;-64
2023/01/08 03:58:25;;;;;;;11.90;6.47;;;-0.10;87.40;;;;;;5031546;28;20190;-64
2023/01/08 04:00:51;;;;;;;9.07;5.83;;;-0.10;87.50;;;;;;5044957;28;20256;-65
2023/01/08 04:03:17;;;;;;;9.17;6.20;;;-0.20;87.10;;;;;;5030081;28;20188;-64
2023/01/08 04:05:43;;;;;;;7.43;5.43;;;-0.20;87.20;;;;;;5025323;28;20437;-64
2023/01/08 04:08:08;;;;;;;9.07;5.80;;;-0.20;87.50;;;;;;4999770;28;20476;-64
2023/01/08 04:10:34;;;;;;;7.87;5.60;;;-0.20;88.50;;;;;;5025262;28;20197;-64
2023/01/08 04:13:00;;;;;;;9.33;6.10;;;-0.20;87.90;;;;;;5015895;28;20191;-64
2023/01/08 04:15:25;;;;;;;7.47;5.60;;;-0.20;88.00;;;;;;4997721;28;20202;-64
2023/01/08 04:17:53;;;;;;;10.60;5.33;;;-0.20;88.10;;;;;;5002408;28;20183;-64
2023/01/08 04:20:18;;;;;;;7.20;4.90;;;-0.20;87.70;;;;;;5022382;28;20206;-64
2023/01/08 04:22:44;;;;;;;9.30;5.90;;;-0.20;88.10;;;;;;5018747;28;20490;-64
2023/01/08 04:25:10;;;;;;;8.17;5.03;;;-0.20;88.50;;;;;;5033595;28;20187;-64
2023/01/08 04:27:36;;;;;;;7.67;5.73;;;-0.20;88.20;;;;;;5020193;28;20206;-64
2023/01/08 04:30:02;;;;;;;8.37;5.73;;;-0.20;88.50;;;;;;5049675;28;20255;-64
2023/01/08 04:32:28;;;;;;;9.23;6.67;;;-0.10;89.10;;;;;;5020212;28;20189;-64
2023/01/08 04:34:53;;;;;;;8.83;6.00;;;-0.10;89.40;;;;;;5017313;28;20533;-64
2023/01/08 04:37:19;;;;;;;8.83;5.60;;;-0.10;90.00;;;;;;5019640;28;20220;-63
2023/01/08 04:39:45;;;;;;;8.63;6.13;;;0.00;89.70;;;;;;5016791;28;20183;-63
2023/01/08 04:42:10;;;;;;;8.30;5.30;;;0.00;90.00;;;;;;5012897;28;20198;-63
2023/01/08 04:44:36;;;;;;;10.10;6.83;;;0.00;89.70;;;;;;5027416;28;20186;-64
2023/01/08 04:47:02;;;;;;;9.87;5.73;;;0.00;89.50;;;;;;5015333;28;20191;-65
2023/01/08 04:49:27;;;;;;;9.30;5.80;;;0.10;89.30;;;;;;5008904;28;20190;-64
2023/01/08 04:51:53;;;;;;;8.10;5.47;;;0.10;89.10;;;;;;5014057;28;20247;-64
2023/01/08 04:54:19;;;;;;;8.73;5.13;;;0.20;89.10;;;;;;5029393;28;20201;-64
2023/01/08 04:56:44;;;;;;;8.70;5.70;;;0.20;89.00;;;;;;5020836;28;20212;-64
2023/01/08 04:59:10;;;;;;;9.63;7.13;;;0.20;88.70;;;;;;5023583;28;20203;-64
2023/01/08 05:01:36;;;;;;;9.43;5.70;;;0.20;88.50;;;;;;5028904;28;20187;-64
2023/01/08 05:04:03;;;;;;;7.97;5.53;;;0.10;88.70;;;;;;5012556;28;20217;-64
2023/01/08 05:06:30;;;;;;;6.97;5.43;;;0.00;88.30;;;;;;5031321;28;20187;-64
2023/01/08 05:08:56;;;;;;;7.73;5.57;;;0.00;87.90;;;;;;5030004;28;20493;-64
2023/01/08 05:11:23;;;;;;;6.50;4.77;;;0.00;87.60;;;;;;5028340;28;20428;-64
2023/01/08 05:13:50;;;;;;;9.00;5.80;;;0.00;87.60;;;;;;5037505;28;20438;-64
2023/01/08 05:16:16;;;;;;;8.00;5.70;;;-0.10;87.30;;;;;;5013347;28;20462;-64
2023/01/08 05:18:43;;;;;;;7.93;5.40;;;-0.10;87.50;;;;;;5022050;28;20426;-64
2023/01/08 05:21:09;;;;;;;10.10;5.50;;;-0.10;86.90;;;;;;5015167;28;20442;-64
2023/01/08 05:23:35;;;;;;;8.30;6.00;;;-0.20;87.50;;;;;;5022026;28;20453;-64
2023/01/08 05:26:02;;;;;;;7.93;5.47;;;-0.20;87.30;;;;;;5039580;28;20473;-65
2023/01/08 05:28:28;;;;;;;7.83;5.10;;;-0.20;87.20;;;;;;5029724;28;20192;-64
2023/01/08 05:30:54;;;;;;;7.83;5.20;;;-0.20;86.90;;;;;;5027096;28;20462;-64
2023/01/08 05:33:20;;;;;;;6.20;4.93;;;-0.30;86.90;;;;;;5027352;28;20228;-64
2023/01/08 05:35:46;;;;;;;9.90;5.87;;;-0.30;87.20;;;;;;5010286;28;20243;-64
2023/01/08 05:38:12;;;;;;;9.00;6.00;;;-0.30;87.00;;;;;;5010647;28;20422;-64
2023/01/08 05:40:38;;;;;;;6.73;4.63;;;-0.40;87.20;;;;;;5015637;28;20190;-64
2023/01/08 05:43:04;;;;;;;9.03;5.53;;;-0.30;87.00;;;;;;5006022;28;20209;-64
2023/01/08 05:45:30;;;;;;;7.97;5.07;;;-0.40;87.10;;;;;;5015341;28;20342;-64
2023/01/08 05:47:56;;;;;;;8.13;5.53;;;-0.50;86.80;;;;;;5008048;28;20435;-64
2023/01/08 05:50:22;;;;;;;7.17;5.73;;;-0.50;86.80;;;;;;5027745;28;20419;-64
2023/01/08 05:52:48;;;;;;;8.53;5.80;;;-0.50;86.80;;;;;;5021170;28;20185;-64
2023/01/08 05:55:13;;;;;;;7.23;5.23;;;-0.50;86.80;;;;;;5009780;28;20344;-64
2023/01/08 05:57:39;;;;;;;9.67;5.70;;;-0.50;86.80;;;;;;5027177;28;20219;-64
2023/01/08 06:00:07;;;;;;;8.53;5.53;;;-0.70;87.20;;;;;;5024024;28;20190;-64
2023/01/08 06:02:33;;;;;;;9.23;5.73;;;-0.60;87.20;;;;;;5028445;28;20187;-64
2023/01/08 06:04:59;;;;;;;9.43;5.33;;;-0.60;87.20;;;;;;5024876;28;20426;-64
2023/01/08 06:07:24;;;;;;;8.27;5.67;;;-0.60;87.50;;;;;;5019121;28;20483;-64
2023/01/08 06:09:50;;;;;;;7.57;5.33;;;-0.60;87.20;;;;;;5003096;28;20201;-65
2023/01/08 06:12:17;;;;;;;7.57;5.17;;;-0.60;87.70;;;;;;5024861;28;20194;-64
2023/01/08 06:14:42;;;;;;;8.60;5.80;;;-0.60;87.50;;;;;;5017396;28;20189;-64
2023/01/08 06:17:08;;;;;;;7.40;4.90;;;-0.60;87.50;;;;;;5014539;28;20450;-64
2023/01/08 06:19:34;;;;;;;7.87;5.10;;;-0.60;87.10;;;;;;5018019;28;20205;-63
2023/01/08 06:21:59;;;;;;;8.00;5.50;;;-0.60;86.90;;;;;;5015657;28;20183;-64
2023/01/08 06:24:25;;;;;;;8.83;5.40;;;-0.60;86.80;;;;;;5003438;28;20186;-64
2023/01/08 06:26:51;;;;;;;7.57;5.17;;;-0.60;86.80;;;;;;5018434;28;20279;-64
2023/01/08 06:29:16;;;;;;;6.77;4.67;;;-0.60;86.60;;;;;;5004665;28;20194;-64
2023/01/08 06:31:42;;;;;;;7.27;5.03;;;-0.60;86.70;;;;;;5001209;28;20191;-64
2023/01/08 06:34:08;;;;;;;6.73;5.20;;;-0.60;86.50;;;;;;5006924;28;20192;-62
2023/01/08 06:36:33;;;;;;;8.20;5.23;;;-0.60;86.60;;;;;;4998040;28;20205;-64
2023/01/08 06:38:59;;;;;;;8.10;5.43;;;-0.60;86.80;;;;;;5010650;28;20188;-64
2023/01/08 06:41:25;;;;;;;6.03;4.33;;;-0.60;86.60;;;;;;5009984;28;20190;-64
2023/01/08 06:43:50;;;;;;;6.93;4.97;;;-0.60;86.40;;;;;;5031067;28;20175;-64
2023/01/08 06:46:17;;;;;;;6.07;4.73;;;-0.60;86.40;;;;;;5008417;28;20247;-62
2023/01/08 06:48:42;;;;;;;7.37;4.80;;;-0.60;86.40;;;;;;5022599;28;20184;-64
2023/01/08 06:51:08;;;;;;;7.77;5.60;;;-0.60;86.60;;;;;;5009230;28;20431;-65
2023/01/08 06:53:34;;;;;;;8.07;5.23;;;-0.60;86.80;;;;;;5008507;28;20194;-64
2023/01/08 06:56:01;;;;;;;7.60;5.03;;;-0.60;86.90;;;;;;5001349;28;20262;-64
2023/01/08 06:58:27;;;;;;;6.97;5.17;;;-0.50;86.80;;;;;;5003059;28;20199;-64
2023/01/08 07:00:52;;;;;;;5.27;4.43;;;-0.50;86.80;;;;;;5017665;28;20435;-64
2023/01/08 07:03:19;;;;;;;7.40;4.87;;;-0.50;86.80;;;;;;5012978;28;20428;-64
2023/01/08 07:05:45;;;;;;;8.87;5.47;;;-0.40;86.80;;;;;;5020945;28;20273;-64
2023/01/08 07:08:14;;;;;;;7.80;5.10;;;-0.40;86.90;;;;;;5016435;28;20553;-64
2023/01/08 07:10:39;;;;;;;7.73;5.30;;;-0.40;86.90;;;;;;5026337;28;20185;-64
2023/01/08 07:13:07;;;;;;;8.80;5.57;;;-0.40;87.00;;;;;;5011728;28;20978;-64
2023/01/08 07:15:35;;;;;;;8.40;4.90;;;-0.30;86.70;;;;;;5007931;28;20194;-64
2023/01/08 07:18:07;;;;;;;6.57;4.60;;;-0.30;86.80;;;;;;5023911;28;20427;-64
2023/01/08 07:20:33;;;;;;;8.57;5.23;;;-0.20;86.70;;;;;;5016919;28;20472;-64
2023/01/08 07:23:09;;;;;;;7.30;5.17;;;-0.20;86.40;;;;;;5037313;28;20428;-64
2023/01/08 07:25:35;;;;;;;11.40;7.57;;;-0.20;86.50;;;;;;5020214;28;20226;-65
2023/01/08 07:28:01;;;;;;;14.47;8.90;;;-0.20;86.70;;;;;;5000559;28;20461;-64
2023/01/08 07:30:27;;;;;;;9.93;7.33;;;-0.20;86.50;;;;;;5031755;28;20209;-64
2023/01/08 07:32:52;;;;;;;11.83;7.27;;;-0.20;86.70;;;;;;5016440;28;20188;-63
2023/01/08 07:35:18;;;;;;;10.93;7.03;;;-0.20;86.60;;;;;;5011638;28;20439;-64
2023/01/08 07:37:44;;;;;;;8.43;6.40;;;-0.20;86.50;;;;;;5013472;28;20200;-65
2023/01/08 07:40:11;;;;;;;10.93;6.60;;;-0.10;86.50;;;;;;5027852;28;20191;-65
2023/01/08 07:42:37;;;;;;;9.20;6.70;;;-0.10;86.40;;;;;;5013903;28;20185;-64
2023/01/08 07:45:04;;;;;;;7.70;6.03;;;-0.10;86.40;;;;;;5014691;28;20427;-64
2023/01/08 07:47:30;;;;;;;9.57;6.17;;;-0.10;86.30;;;;;;5004201;28;20434;-63
2023/01/08 07:49:55;;;;;;;10.43;6.40;;;-0.10;86.40;;;;;;5014291;28;20448;-63
2023/01/08 07:52:21;;;;;;;9.23;6.63;;;-0.10;86.60;;;;;;5010948;28;20275;-64
2023/01/08 07:54:47;;;;;;;10.40;7.30;;;0.00;86.60;;;;;;5026149;28;20202;-64
2023/01/08 07:57:13;;;;;;;10.97;6.63;;;0.00;86.70;;;;;;5022314;28;20260;-63
2023/01/08 07:59:38;;;;;;;10.13;6.50;;;0.00;86.60;;;;;;5020716;28;20188;-64
2023/01/08 08:02:04;;;;;;;9.37;7.20;;;0.00;86.70;;;;;;5000462;28;20204;-64
2023/01/08 08:04:30;;;;;;;9.03;6.40;;;0.10;86.50;;;;;;5016348;28;20213;-64
2023/01/08 08:06:55;;;;;;;9.30;6.80;;;0.10;86.70;;;;;;5023309;28;20238;-64
2023/01/08 08:09:21;;;;;;;8.67;6.53;;;0.10;86.70;;;;;;5016726;28;20667;-64
2023/01/08 08:11:47;;;;;;;11.67;8.00;;;0.20;86.80;;;;;;5031828;28;20195;-64
2023/01/08 08:14:13;;;;;;;9.70;6.60;;;0.20;87.00;;;;;;5020595;28;20441;-64
2023/01/08 08:16:38;;;;;;;10.07;6.90;;;0.30;86.90;;;;;;5005080;28;20214;-64
2023/01/08 08:19:04;;;;;;;8.47;6.53;;;0.30;87.20;;;;;;5020733;28;20246;-64
2023/01/08 08:21:30;;;;;;;10.07;6.43;;;0.40;87.20;;;;;;5025375;28;20219;-66
2023/01/08 08:23:56;;;;;;;8.53;6.27;;;0.40;87.50;;;;;;5013856;28;20249;-66
2023/01/08 08:26:22;;;;;;;8.80;6.43;;;0.50;87.50;;;;;;5015042;28;20198;-66
2023/01/08 08:28:48;;;;;;;8.40;6.10;;;0.50;87.80;;;;;;5026921;28;20447;-67
2023/01/08 08:31:14;;;;;;;9.03;6.43;;;0.60;87.70;;;;;;5018542;28;20184;-65
2023/01/08 08:33:40;;;;;;;9.63;6.90;;;0.60;87.90;;;;;;5012415;28;20438;-66
2023/01/08 08:36:06;;;;;;;8.23;6.37;;;0.70;88.20;;;;;;5017024;28;20199;-66
2023/01/08 08:38:31;;;;;;;8.47;5.47;;;0.80;88.30;;;;;;5026719;28;20185;-67
2023/01/08 08:40:57;;;;;;;10.13;6.47;;;0.80;88.20;;;;;;5005016;28;20422;-67
2023/01/08 08:43:23;;;;;;;9.17;6.10;;;0.90;88.10;;;;;;5032723;28;20187;-67
2023/01/08 08:45:48;;;;;;;12.50;7.63;;;1.00;88.20;;;;;;5009976;28;20195;-67
2023/01/08 08:48:15;;;;;;;15.10;8.73;;;1.00;88.10;;;;;;5014711;28;20318;-67
2023/01/08 08:50:41;;;;;;;20.80;11.10;;;1.10;88.10;;;;;;4997902;28;20266;-67
2023/01/08 08:53:08;;;;;;;17.60;10.63;;;1.10;88.10;;;;;;5025678;28;20426;-67
2023/01/08 08:55:34;;;;;;;19.10;10.23;;;1.20;88.00;;;;;;5014850;28;20419;-68
2023/01/08 08:58:09;;;;;;;17.17;10.03;;;1.20;88.00;;;;;;4997434;28;20484;-67
2023/01/08 09:00:36;;;;;;;15.23;8.60;;;1.20;87.90;;;;;;5022466;28;20244;-67
2023/01/08 09:03:02;;;;;;;10.50;7.40;;;1.30;87.90;;;;;;5019637;28;20434;-67
2023/01/08 09:05:29;;;;;;;11.20;7.17;;;1.40;87.90;;;;;;5032208;28;20423;-67
2023/01/08 09:07:54;;;;;;;10.40;6.70;;;1.40;88.00;;;;;;5016247;28;20241;-67
2023/01/08 09:10:21;;;;;;;11.27;7.33;;;1.40;87.90;;;;;;5024571;28;20438;-67
2023/01/08 09:12:47;;;;;;;11.30;7.67;;;1.50;87.80;;;;;;5000629;28;20652;-67
2023/01/08 09:15:13;;;;;;;9.77;6.73;;;1.60;87.50;;;;;;5006314;28;20432;-65
2023/01/08 09:17:38;;;;;;;9.23;5.90;;;1.60;87.60;;;;;;5018568;28;20222;-66
2023/01/08 09:20:05;;;;;;;9.93;6.70;;;1.70;87.60;;;;;;5010348;28;20196;-67
2023/01/08 09:22:30;;;;;;;10.40;6.50;;;1.80;87.50;;;;;;5004279;28;20191;-67
2023/01/08 09:24:56;;;;;;;11.17;7.00;;;1.80;87.50;;;;;;5009411;28;20434;-68
2023/01/08 09:27:22;;;;;;;9.23;5.93;;;1.90;87.10;;;;;;5012827;28;20238;-68
2023/01/08 09:29:47;;;;;;;8.50;5.90;;;2.00;87.10;;;;;;5026105;28;20194;-69
2023/01/08 09:32:13;;;;;;;9.30;6.60;;;2.10;87.00;;;;;;5014160;28;20195;-67
2023/01/08 09:34:39;;;;;;;8.17;6.27;;;2.10;86.20;;;;;;5014779;28;20219;-66
2023/01/08 09:37:05;;;;;;;8.57;6.03;;;2.20;86.30;;;;;;5016906;28;20221;-68
2023/01/08 09:39:31;;;;;;;7.77;5.40;;;2.30;85.40;;;;;;5014249;28;20199;-67
2023/01/08 09:42:00;;;;;;;7.83;5.77;;;2.40;84.20;;;;;;4998545;28;20434;-68
2023/01/08 09:44:29;;;;;;;5.97;4.63;;;2.50;83.60;;;;;;5021731;28;20187;-68
2023/01/08 09:46:56;;;;;;;7.37;5.20;;;2.60;83.70;;;;;;5018441;28;20433;-68
2023/01/08 09:49:38;;;;;;;6.60;4.83;;;2.70;83.40;;;;;;5029168;28;20421;-67
2023/01/08 09:52:04;;;;;;;12.43;7.07;;;2.70;83.20;;;;;;5023309;28;20430;-68
2023/01/08 09:54:31;;;;;;;14.33;10.30;;;2.90;82.40;;;;;;5022321;28;20464;-67
2023/01/08 09:56:58;;;;;;;19.07;11.87;;;3.00;82.10;;;;;;5013018;28;20466;-68
2023/01/08 09:59:25;;;;;;;15.67;11.83;;;3.10;82.10;;;;;;5016436;28;20521;-68
2023/01/08 10:01:51;;;;;;;13.70;11.80;;;3.10;81.60;;;;;;5026052;28;20438;-67
2023/01/08 10:04:22;;;;;;;13.17;10.90;;;3.10;81.30;;;;;;5015630;28;20431;-66
2023/01/08 10:07:00;;;;;;;13.70;10.60;;;3.10;81.70;;;;;;5028229;28;20459;-66
2023/01/08 10:09:31;;;;;;;14.00;10.57;;;3.10;82.20;;;;;;5028235;28;20576;-66
2023/01/08 10:12:03;;;;;;;12.43;9.50;;;3.10;82.00;;;;;;5025225;28;20414;-67
2023/01/08 10:14:37;;;;;;;13.30;9.57;;;3.10;82.10;;;;;;5016429;28;20429;-66
2023/01/08 10:17:38;;;;;;;10.73;8.60;;;3.30;82.20;;;;;;5013024;28;20468;-66
2023/01/08 10:20:33;;;;;;;12.87;10.07;;;3.30;82.40;;;;;;5034036;28;20467;-67
2023/01/08 10:23:13;;;;;;;12.40;10.30;;;3.40;82.40;;;;;;5000220;28;20520;-65
2023/01/08 10:25:51;;;;;;;11.37;9.13;;;3.50;82.90;;;;;;5028511;28;20409;-66
2023/01/08 10:28:28;;;;;;;13.30;9.67;;;3.50;82.80;;;;;;5015818;28;20423;-66
2023/01/08 10:31:02;;;;;;;12.50;9.07;;;3.60;83.30;;;;;;5016373;28;20421;-67
2023/01/08 10:33:41;;;;;;;14.53;10.27;;;3.70;83.00;;;;;;5020783;28;20422;-66
2023/01/08 10:36:10;;;;;;;11.83;9.47;;;3.70;82.60;;;;;;5026901;28;20466;-65
2023/01/08 10:38:51;;;;;;;11.67;9.70;;;3.90;82.20;;;;;;5040336;28;20429;-64
2023/01/08 10:41:17;;;;;;;13.30;10.77;;;3.90;81.80;;;;;;5015413;28;20458;-66
2023/01/08 10:43:57;;;;;;;14.33;10.20;;;4.00;80.30;;;;;;5024867;28;20438;-66
2023/01/08 10:46:39;;;;;;;12.07;9.23;;;4.00;80.10;;;;;;5013777;28;20426;-65
2023/01/08 10:49:12;;;;;;;12.30;9.10;;;4.10;79.20;;;;;;5023039;28;20576;-66
2023/01/08 10:51:49;;;;;;;12.07;8.90;;;4.20;79.30;;;;;;5021282;28;20426;-68
2023/01/08 10:54:29;;;;;;;13.13;9.00;;;4.30;79.50;;;;;;5015856;28;20415;-68
2023/01/08 10:56:55;;;;;;;10.50;8.03;;;4.30;78.80;;;;;;5027862;28;20493;-68
2023/01/08 10:59:22;;;;;;;10.10;8.37;;;4.40;77.90;;;;;;5016121;28;20476;-67
2023/01/08 11:01:56;;;;;;;11.90;9.37;;;4.50;77.10;;;;;;5027206;28;20203;-67
2023/01/08 11:04:34;;;;;;;14.03;7.93;;;4.50;77.20;;;;;;5021901;28;20505;-67
2023/01/08 11:07:05;;;;;;;12.17;9.20;;;4.60;76.70;;;;;;5023873;28;20478;-67
2023/01/08 11:09:44;;;;;;;10.67;8.50;;;4.70;77.20;;;;;;5019252;28;20421;-67
2023/01/08 11:12:39;;;;;;;12.97;9.77;;;4.70;77.50;;;;;;5030354;28;20445;-68
2023/01/08 11:15:27;;;;;;;11.47;8.93;;;4.80;76.50;;;;;;5026102;28;20445;-67
2023/01/08 11:17:53;;;;;;;13.57;9.67;;;4.90;77.30;;;;;;5023388;28;20528;-67
2023/01/08 11:20:22;;;;;;;11.87;10.17;;;4.90;76.10;;;;;;5015558;28;20422;-68
2023/01/08 11:22:49;;;;;;;11.97;9.43;;;4.90;76.40;;;;;;5017514;28;20184;-68
2023/01/08 11:25:24;;;;;;;11.10;8.90;;;4.90;76.80;;;;;;5017281;28;20437;-67
2023/01/08 11:27:51;;;;;;;12.03;9.00;;;5.00;76.10;;;;;;5015737;28;20470;-67
2023/01/08 11:30:24;;;;;;;12.53;9.20;;;5.00;76.10;;;;;;5016427;28;20451;-67
2023/01/08 11:33:11;;;;;;;11.40;8.43;;;5.00;76.10;;;;;;5022499;28;20476;-67
2023/01/08 11:35:41;;;;;;;11.07;9.00;;;5.00;75.70;;;;;;5016634;28;20430;-67
2023/01/08 11:38:10;;;;;;;12.27;9.03;;;5.00;76.50;;;;;;5024826;28;20489;-68
2023/01/08 11:40:59;;;;;;;10.60;8.63;;;5.10;76.60;;;;;;5016804;28;20782;-67
2023/01/08 11:43:53;;;;;;;12.20;8.53;;;5.20;75.80;;;;;;5019282;28;20441;-67
2023/01/08 11:46:30;;;;;;;10.20;7.57;;;5.30;75.20;;;;;;5022742;28;20422;-67
2023/01/08 11:49:29;;;;;;;10.07;7.23;;;5.50;74.90;;;;;;5034059;28;20864;-67
2023/01/08 11:52:40;;;;;;;8.53;6.50;;;5.60;74.90;;;;;;5021051;28;20445;-68
2023/01/08 11:55:23;;;;;;;7.63;6.33;;;5.80;74.60;;;;;;4989341;28;20441;-68
2023/01/08 11:57:51;;;;;;;9.07;6.93;;;6.00;73.90;;;;;;5014339;28;20464;-68
2023/01/08 12:00:51;;;;;;;9.70;7.83;;;6.10;72.90;;;;;;5034047;28;20430;-68
2023/01/08 12:03:41;;;;;;;8.77;6.90;;;6.30;72.20;;;;;;5027576;28;20427;-68
2023/01/08 12:06:37;;;;;;;8.57;7.27;;;6.40;72.20;;;;;;5032422;28;20434;-67
2023/01/08 12:09:24;;;;;;;11.57;7.53;;;6.60;70.00;;;;;;5026221;28;20473;-66
2023/01/08 12:12:15;;;;;;;12.47;7.60;;;6.70;70.50;;;;;;5026918;28;20422;-68
2023/01/08 12:14:59;;;;;;;9.47;7.03;;;6.70;69.50;;;;;;5015613;28;20423;-68
2023/01/08 12:17:37;;;;;;;11.63;7.60;;;6.70;70.10;;;;;;5043520;28;20505;-69
2023/01/08 12:20:44;;;;;;;9.50;7.57;;;6.70;69.20;;;;;;5014254;28;20497;-68
2023/01/08 12:23:34;;;;;;;11.73;7.77;;;6.70;68.30;;;;;;5022278;28;20527;-68
2023/01/08 12:26:37;;;;;;;12.33;7.63;;;6.80;67.80;;;;;;5011485;28;20430;-69
2023/01/08 12:29:14;;;;;;;11.57;8.40;;;6.70;67.60;;;;;;5020015;28;20435;-68
2023/01/08 12:32:11;;;;;;;10.77;7.97;;;6.70;68.00;;;;;;5035864;28;20423;-67
2023/01/08 12:34:54;;;;;;;11.83;8.33;;;6.60;67.70;;;;;;5019125;28;20430;-66
2023/01/08 12:37:55;;;;;;;12.07;8.40;;;6.60;68.20;;;;;;5024291;28;20490;-66
2023/01/08 12:40:26;;;;;;;10.30;7.03;;;6.60;68.30;;;;;;5014969;28;20423;-67
2023/01/08 12:42:53;;;;;;;10.30;7.50;;;6.50;68.20;;;;;;5018059;28;20202;-67
2023/01/08 12:45:31;;;;;;;11.50;7.60;;;6.50;68.40;;;;;;5002867;28;20511;-67
2023/01/08 12:48:07;;;;;;;8.87;7.27;;;6.60;69.60;;;;;;5023885;28;20430;-67
2023/01/08 12:50:41;;;;;;;12.47;8.00;;;6.60;68.90;;;;;;5017576;28;20422;-68
2023/01/08 12:53:31;;;;;;;10.83;8.73;;;6.70;69.10;;;;;;5028920;28;20344;-68
2023/01/08 12:56:15;;;;;;;10.40;8.33;;;6.80;68.00;;;;;;5024516;28;20643;-67
2023/01/08 12:59:11;;;;;;;10.27;7.57;;;6.80;67.70;;;;;;5041685;28;20425;-68
2023/01/08 13:02:00;;;;;;;10.93;7.00;;;6.80;68.40;;;;;;5023284;28;20847;-67
2023/01/08 13:04:25;;;;;;;8.53;7.13;;;6.80;69.00;;;;;;5027119;28;20246;-67
2023/01/08 13:07:03;;;;;;;10.47;7.80;;;6.90;68.40;;;;;;5010929;28;20487;-68